Skip Navigation Links Skip Navigation Links

Current Weather

Gary Muni, Gary, Ind.

For information only: do not use for flight planning or navigation.
Latest weather
Observation time Tuesday, December 1, 2020 9:45 AM CST
Local time Tuesday, December 1, 2020 9:49 AM CST
Flight conditions Marginal Visual Meteorological Conditions
Winds
Wind direction West-Northwest (290°)
Wind speed 14 mph
Visibility 10 mi.
Sky condition
Ceiling 2,500 ft. overcast
Cloud layer overcast 2,500 ft.
Temperature 28°F
Dewpoint 18°F
Altimeter 30.06 in.Hg
Derived measurements
Relative humidity 63%
Wind chill 17°F
Density altitude -1600 ft.
METAR KGYY 011545Z 29012KT 10SM OVC025 M02/M08 A3006

Settings

Location code

InnerDrive.Weather 4.0.6770.0 Release CLR 4.0.30319.42000
Copyright ©2018 Inner Drive Technology. All rights reserved. Portions Copyright ©1986-2018 David Braverman.

Find weather

Site navigation


Skip Navigation Links

Place info

Page info

PayPal - The safer, easier way to pay online!

Return home.

Copyright ©2020 Inner Drive Technology. Purveyors of fine, hand-crafted computer software. Page printed 2020-12-01T15:49:35 UTC.